Ana Sayfa
METAR-TAF:

METAR-TAF

Havaalanları :

Stockholm-Arlanda Havalimanı

Stokholm-Arlanda, İsveç

Enlem: 59-39N, Boylam: 017-57E, yükseklik: 38 m

Güncel hava durumu gözlemi

Rapor saat 21:50 UTC de 48 dakika önce yapıldı.
Rüzgar kuzeydan 10 kt
Sıcaklık 2°C
Nem 80%
Basınç 1030 hPa
Görüş mesafesi 10 km veya daha fazla
1500 m altında bulut yok ve kümülonimbus yok

METAR: ESSA 162150Z 01010KT CAVOK 02/M01 Q1030 R88/09//95 NOSIG

Saat: 00:38 (22:38 UTC)

Tahmin

Rapor saat 17:30 UTC de 5 saat ve 8 dakika önce yapıldı.
Ayın 16'si saat 18 UTC'den ayın 17'si saat 18 UTC'ye kadar geçerli Tahmin
Rüzgar kuzeydan 8 kt
Görüş mesafesi 10 km veya daha fazla
1500 m altında bulut yok ve kümülonimbus yok
Dönüşüyor
ayın 17'si saat 09 UTC'den ayın 17'si saat 11 UTC'ye kadar
Rüzgar doğu/kuzeydoğudan 10 kt
Dönüşüyor
ayın 17'si saat 16 UTC'den ayın 17'si saat 18 UTC'ye kadar
Rüzgar kuzeydan 6 kt

TAF: ESSA 161730Z 1618/1718 01008KT CAVOK BECMG 1709/1711 07010KT BECMG 1716/1718 01006KT

4.000'den fazla havaalanı için hava durumu gözlemleri ve tahminleri (METAR ve TAF raporları).

Kullanılabilir istasyonlar harita üzerinde sarı ve kırmızı noktalarla gösterilir.

İstasyonun adını görmek için fareyi noktanın üzerinde gezdirin.

Sonrasında hava gözlem ve tahminlerini görmek için tıklayın.

Haritayı değiştirmek için: yaklaştırmak için siyah artı işaretli yeşil düğmeye ve uzaklaştırmak için de eksi işaretli düğmeye hızla tıklayın; bitişik haritalar için yeşil okları kullanın.


METAR-TAF: